Latest Weather Observations for Perisher Valley

IDN60801

Issued at 5:13 pm EDT Saturday 5 December 2020 (issued every 10 minutes, with the page automatically refreshed every 10 minutes)

About weather observations | Map of weather stations | Latest weather observations for NSW | Other Formats
Station Details ID: 071075 Name: PERISHER VALLEY AWS Lat: -36.41 Lon: 148.41 Height: 1738.0 m
Data from the previous 72 hours. | See also: Recent months at Perisher Valley
Date/Time
EDT
Temp
°C
App
Temp
°C
Dew
Point
°C
Rel
Hum
%
Delta-T
°C
Wind Press
QNH
hPa
Press
MSL
hPa
Rain since
9am
mm
Dir  Spd
km/h
Gust
km/h
Spd
kts
Gust
kts
05/05:00pm 10.8 8.8 10.0 95 0.4 WNW 11 54 6 29 - - 6.2
05/04:30pm 11.0 9.2 9.3 89 0.9 WNW 9 30 5 16 - - 2.4
05/04:00pm 12.3 10.4 9.0 80 1.8 WNW 9 35 5 19 - - 0.8
05/03:30pm 15.6 13.4 6.1 53 5.0 NW 7 30 4 16 - - 0.0
05/03:00pm 18.0 14.0 2.7 36 7.7 NNW 13 30 7 16 - - 0.0
05/02:30pm 18.5 14.2 1.1 31 8.5 NW 13 43 7 23 - - 0.0
05/02:00pm 19.1 13.8 -0.3 27 9.3 NW 17 39 9 21 - - 0.0
05/01:30pm 19.1 15.0 -0.3 27 9.3 WNW 11 33 6 18 - - 0.0
05/01:00pm 19.2 13.4 -1.3 25 9.7 W 19 41 10 22 - - 0.0
05/12:30pm 18.5 12.5 -1.3 26 9.3 WNW 20 43 11 23 - - 0.0
05/12:00pm 17.7 12.9 0.4 31 8.3 WNW 15 37 8 20 - - 0.0
05/11:30am 15.1 10.2 -3.2 28 8.0 W 13 39 7 21 - - 0.0
05/11:00am 14.3 8.2 -3.9 28 7.8 W 19 46 10 25 - - 0.0
05/10:30am 13.6 6.4 -5.0 27 7.7 W 24 43 13 23 - - 0.0
05/10:00am 13.6 6.8 -5.5 26 7.8 W 22 48 12 26 - - 0.0
05/09:30am 13.1 7.5 -5.9 26 7.7 W 15 41 8 22 - - 0.0
05/09:00am 12.5 5.9 -6.5 26 7.5 W 20 48 11 26 - - 0.0
05/08:30am 13.9 7.6 -5.8 25 8.1 W 19 54 10 29 - - 0.0
05/08:00am 13.1 5.8 -6.5 25 7.8 W 24 50 13 27 - - 0.0
05/07:30am 12.5 6.5 -6.5 26 7.5 W 17 39 9 21 - - 0.0
05/07:00am 10.5 4.8 -7.2 28 6.8 W 15 35 8 19 - - 0.0
05/06:30am 10.8 4.3 -7.4 27 7.0 W 19 43 10 23 - - 0.0
05/06:00am 9.2 5.2 -7.4 30 6.2 SSW 6 28 3 15 - - 0.0
05/05:30am 8.8 5.2 -7.4 31 6.0 NNW 4 9 2 5 - - 0.0
05/05:00am 7.4 4.2 -7.0 35 5.3 NE 2 9 1 5 - - 0.0
05/04:30am 6.8 3.2 -7.2 36 5.1 NNE 4 9 2 5 - - 0.0
05/04:00am 7.7 4.2 -6.8 35 5.4 NW 4 7 2 4 - - 0.0
05/03:30am 3.8 0.4 -5.4 51 3.4 NW 4 6 2 3 - - 0.0
05/03:00am 6.6 2.8 -5.7 41 4.7 NW 6 9 3 5 - - 0.0
05/02:30am 7.4 3.6 -6.0 38 5.1 WNW 6 9 3 5 - - 0.0
05/02:00am 8.7 4.2 -7.0 32 5.9 WNW 9 15 5 8 - - 0.0
05/01:30am 9.1 4.2 -7.5 30 6.2 WNW 11 17 6 9 - - 0.0
05/01:00am 10.6 5.3 -7.6 27 6.9 W 13 22 7 12 - - 0.0
05/12:30am 11.2 5.1 -7.6 26 7.2 W 17 26 9 14 - - 0.0
05/12:00am 9.2 5.3 -6.2 33 5.9 WSW 6 13 3 7 - - 0.0
 
Date/Time
EDT
Temp
°C
App
Temp
°C
Dew
Point
°C
Rel
Hum
%
Delta-T
°C
Wind Press
QNH
hPa
Press
MSL
hPa
Rain since
9am
mm
Dir  Spd
km/h
Gust
km/h
Spd
kts
Gust
kts
04/11:30pm 5.5 2.5 -5.5 45 4.1 ENE 2 6 1 3 - - 0.0
04/11:00pm 5.5 2.5 -5.2 46 4.0 NE 2 4 1 2 - - 0.0
04/10:30pm 7.1 3.3 -5.6 40 4.8 WSW 6 17 3 9 - - 0.0
04/10:00pm 8.8 4.9 -4.7 38 5.4 W 7 15 4 8 - - 0.0
04/09:30pm 5.9 2.6 -4.0 49 3.9 WSW 4 6 2 3 - - 0.0
04/09:00pm 6.4 3.1 -4.4 46 4.2 WNW 4 7 2 4 - - 0.0
04/08:30pm 10.4 6.6 -6.0 31 6.4 WNW 6 11 3 6 - - 0.0
04/08:00pm 12.4 8.3 -6.5 26 7.5 WNW 7 15 4 8 - - 0.0
04/07:30pm 13.7 9.2 -6.5 24 8.1 WNW 9 20 5 11 - - 0.0
04/07:00pm 14.6 8.7 -5.2 25 8.3 WNW 17 41 9 22 - - 0.0
04/06:30pm 15.2 9.4 -4.2 26 8.3 WNW 17 37 9 20 - - 0.0
04/06:00pm 15.7 11.0 -5.3 23 8.8 WNW 11 28 6 15 - - 0.0
04/05:30pm 16.1 11.9 -3.9 25 8.7 WNW 9 24 5 13 - - 0.0
04/05:00pm 16.3 10.2 -4.3 24 8.9 W 19 48 10 26 - - 0.0
04/04:30pm 16.1 9.8 -4.4 24 8.8 W 20 39 11 21 - - 0.0
04/04:00pm 16.0 8.9 -4.0 25 8.7 W 24 52 13 28 - - 0.0
04/03:30pm 15.8 9.2 -3.6 26 8.5 WNW 22 50 12 27 - - 0.0
04/03:00pm 15.4 7.2 -4.0 26 8.4 WNW 30 59 16 32 - - 0.0
04/02:30pm 15.1 7.0 -3.2 28 8.0 WNW 30 54 16 29 - - 0.0
04/02:00pm 14.9 7.3 -2.1 31 7.6 WNW 28 50 15 27 - - 0.0
04/01:30pm 13.9 5.5 -0.9 36 6.7 WNW 33 59 18 32 - - 0.0
04/01:00pm 13.8 6.5 -0.3 38 6.5 WNW 28 50 15 27 - - 0.0
04/12:30pm 12.9 4.0 -1.8 36 6.5 W 35 69 19 37 - - 0.0
04/12:00pm 12.8 4.5 -1.5 37 6.4 WNW 32 63 17 34 - - 0.0
04/11:30am 13.1 5.2 -1.6 36 6.5 WNW 30 57 16 31 - - 0.0
04/11:00am 12.6 4.2 -2.4 35 6.5 WNW 32 61 17 33 - - 0.0
04/10:30am 12.2 2.8 -2.8 35 6.4 WNW 37 70 20 38 - - 0.0
04/10:00am 11.9 1.3 -3.8 33 6.6 WNW 43 65 23 35 - - 0.0
04/09:30am 12.0 2.5 -3.4 34 6.5 WNW 37 65 20 35 - - 0.0
04/09:00am 11.7 2.6 -3.6 34 6.4 WNW 35 65 19 35 - - 0.0
04/08:30am 11.4 3.6 -3.9 34 6.4 WNW 28 50 15 27 - - 0.0
04/08:23am 11.4 3.6 -3.5 35 6.3 WNW 28 48 15 26 - - 0.0
04/08:00am 11.2 4.6 -3.7 35 6.2 W 22 43 12 23 - - 0.0
04/07:30am 10.9 4.1 -4.7 33 6.3 W 22 57 12 31 - - 0.0
04/07:00am 10.3 3.6 -4.5 35 6.0 W 22 43 12 23 - - 0.0
04/06:30am 9.6 3.4 -4.7 36 5.7 W 19 39 10 21 - - 0.0
04/06:00am 8.7 2.5 -4.5 39 5.3 WSW 19 32 10 17 - - 0.0
04/05:30am 8.5 2.3 -4.6 39 5.2 WSW 19 32 10 17 - - 0.0
04/05:00am 8.0 2.5 -5.4 38 5.2 W 15 24 8 13 - - 0.0
04/04:30am 8.1 2.6 -5.3 38 5.2 W 15 35 8 19 - - 0.0
04/04:00am 8.1 2.6 -5.3 38 5.2 W 15 28 8 15 - - 0.0
04/03:30am 7.4 2.6 -5.6 39 5.0 W 11 28 6 15 - - 0.0
04/03:00am 7.2 3.0 -3.6 46 4.3 WNW 9 22 5 12 - - 0.0
04/02:30am 4.8 2.1 -2.3 60 2.9 W 2 13 1 7 - - 0.0
04/02:00am 3.5 0.8 -2.4 65 2.3 W 2 9 1 5 - - 0.0
04/01:30am 4.1 1.0 -2.5 62 2.6 W 4 7 2 4 - - 0.0
04/01:00am 5.3 1.9 -2.0 59 3.0 W 6 15 3 8 - - 0.0
04/12:30am 8.7 4.4 -1.4 49 4.3 W 11 24 6 13 - - 0.0
04/12:00am 7.3 3.7 -1.9 52 3.8 WSW 7 15 4 8 - - 0.0
 
Date/Time
EDT
Temp
°C
App
Temp
°C
Dew
Point
°C
Rel
Hum
%
Delta-T
°C
Wind Press
QNH
hPa
Press
MSL
hPa
Rain since
9am
mm
Dir  Spd
km/h
Gust
km/h
Spd
kts
Gust
kts
03/11:30pm 9.5 4.4 -2.1 44 4.9 W 15 24 8 13 - - 0.0
03/11:00pm 7.7 4.2 -1.3 53 3.8 W 7 17 4 9 - - 0.0
03/10:30pm 3.8 0.4 -2.2 65 2.4 WSW 6 7 3 4 - - 0.0
03/10:00pm 4.5 0.9 -2.4 61 2.8 WSW 7 11 4 6 - - 0.0
03/09:30pm 6.1 2.7 -1.8 57 3.3 WSW 6 9 3 5 - - 0.0
03/09:00pm 7.7 4.5 -0.8 55 3.7 W 6 13 3 7 - - 0.0
03/08:30pm 8.3 5.2 0.3 57 3.6 WNW 6 11 3 6 - - 0.0
03/08:00pm 10.0 6.9 0.1 50 4.4 W 6 13 3 7 - - 0.0
03/07:30pm 12.0 8.4 0.8 46 5.2 WNW 9 17 5 9 - - 0.0
03/07:00pm 13.7 10.7 1.7 44 5.8 WNW 7 20 4 11 - - 0.0
03/06:30pm 14.0 10.8 0.6 40 6.3 WNW 7 20 4 11 - - 0.0
03/06:00pm 14.6 10.9 -0.3 36 6.9 W 9 26 5 14 - - 0.0
03/05:30pm 14.9 10.0 -0.4 35 7.1 W 15 30 8 16 - - 0.0
03/05:00pm 14.7 9.8 -0.6 35 7.0 WNW 15 26 8 14 - - 0.0
03/04:30pm 15.5 10.8 -2.0 30 7.9 WNW 13 28 7 15 - - 0.0
03/04:00pm 16.0 9.9 -2.5 28 8.3 W 20 41 11 22 - - 0.0
03/03:30pm 15.0 9.6 -1.5 32 7.5 WNW 17 35 9 19 - - 0.0
03/03:00pm 15.1 10.2 -3.7 27 8.1 WNW 13 32 7 17 - - 0.0
03/02:30pm 14.8 8.0 -5.0 25 8.3 WNW 22 41 12 22 - - 0.0
03/02:00pm 14.1 7.5 -3.6 29 7.6 WNW 22 43 12 23 - - 0.0
03/01:30pm 13.2 5.8 -0.8 38 6.3 W 28 43 15 23 - - 0.0
03/01:02pm 12.2 5.2 1.8 49 4.9 W 28 46 15 25 - - 0.0
03/01:00pm 12.1 5.3 1.1 47 5.1 W 26 46 14 25 - - 0.0
03/12:30pm 11.6 4.8 0.7 47 5.0 W 26 44 14 24 - - 0.0
03/12:00pm 11.6 5.4 2.4 53 4.4 W 24 44 13 24 - - 0.0
03/11:33am 10.6 4.0 4.3 65 3.1 W 28 48 15 26 - - 0.0
03/11:30am 11.0 4.8 4.2 63 3.4 W 26 48 14 26 - - 0.0
03/11:00am 10.5 4.1 3.1 60 3.6 W 26 44 14 24 - - 0.0
03/10:33am 9.5 2.6 2.4 61 3.3 WNW 28 46 15 25 - - 0.0
03/10:30am 9.9 2.9 2.0 58 3.7 W 28 46 15 25 - - 0.0
03/10:00am 9.3 1.3 1.5 58 3.6 W 33 54 18 29 - - 0.0
03/09:34am 8.7 1.7 1.8 62 3.2 W 28 50 15 27 - - 0.0
03/09:30am 8.9 2.3 1.8 61 3.3 W 26 46 14 25 - - 0.0
03/09:00am 7.8 1.3 0.3 59 3.3 W 24 44 13 24 - - 0.0
03/08:30am 8.2 2.9 -0.3 55 3.7 W 17 39 9 21 - - 0.0
03/08:00am 7.7 2.1 -0.3 57 3.5 W 19 37 10 20 - - 0.0
03/07:30am 7.1 1.8 -0.8 57 3.4 W 17 33 9 18 - - 0.0
03/07:00am 6.5 0.7 -0.2 62 2.9 W 20 37 11 20 - - 0.0
03/06:30am 6.0 1.2 0.3 67 2.5 W 15 28 8 15 - - 0.0
03/06:00am 5.2 0.3 -0.2 68 2.3 W 15 24 8 13 - - 0.0
03/05:30am 4.4 0.1 -2.0 63 2.6 W 11 20 6 11 - - 0.0
03/05:00am 4.3 -0.1 -2.8 60 2.8 W 11 19 6 10 - - 0.0
03/04:30am 5.1 0.2 -3.2 55 3.3 W 13 19 7 10 - - 0.0
03/04:00am 5.8 0.9 -3.8 50 3.8 W 13 17 7 9 - - 0.0
03/03:30am 5.9 1.3 -4.5 47 4.0 W 11 17 6 9 - - 0.0
03/03:00am 2.5 -0.2 -2.2 71 1.9 WSW 2 4 1 2 - - 0.0
03/02:30am 4.5 1.2 0.1 73 1.9 NNW 7 15 4 8 - - 0.0
03/02:00am 4.6 1.2 4.2 97 0.2 NNW 11 20 6 11 - - 0.0
03/01:30am 5.3 2.4 4.9 97 0.2 N 9 19 5 10 - - 0.0
03/01:00am 5.3 2.8 4.7 96 0.3 N 7 17 4 9 - - 0.0
03/12:30am 5.5 3.2 5.5 100 0.0 NNE 7 13 4 7 - - 0.0
03/12:00am 3.2 1.5 1.9 91 0.6 CALM 0 7 0 4 - - 0.0
 
Date/Time
EDT
Temp
°C
App
Temp
°C
Dew
Point
°C
Rel
Hum
%
Delta-T
°C
Wind Press
QNH
hPa
Press
MSL
hPa
Rain since
9am
mm
Dir  Spd
km/h
Gust
km/h
Spd
kts
Gust
kts
02/11:30pm 3.1 0.5 0.7 84 1.0 NNW 4 6 2 3 - - 0.0
02/11:00pm 4.6 2.8 1.5 80 1.4 CALM 0 2 0 1 - - 0.0
02/10:30pm 6.2 3.9 2.5 77 1.7 NNW 4 6 2 3 - - 0.0
02/10:00pm 7.0 5.3 4.0 81 1.4 NW 2 9 1 5 - - 0.0
02/09:30pm 6.6 4.7 2.9 77 1.7 W 2 7 1 4 - - 0.0
02/09:00pm 7.8 6.0 5.4 85 1.2 NW 4 9 2 5 - - 0.0
02/08:30pm 7.1 4.6 1.8 69 2.4 WSW 4 7 2 4 - - 0.0
02/08:00pm 9.0 5.8 -0.3 52 4.1 ENE 6 11 3 6 - - 0.0
02/07:30pm 11.3 7.3 -5.6 30 6.8 NW 7 11 4 6 - - 0.0
02/07:00pm 13.3 9.3 -5.3 27 7.6 NW 7 13 4 7 - - 0.0
02/06:30pm 14.1 10.3 -3.6 29 7.6 NW 7 11 4 6 - - 0.0
02/06:00pm 15.0 11.4 -3.8 27 8.1 W 6 13 3 7 - - 0.0
02/05:30pm 15.9 12.2 -4.6 24 8.8 WNW 6 11 3 6 - - 0.0

Other formats

Comma delimited format used in spreadsheet applications
http://www.bom.gov.au/fwo/IDN60801/IDN60801.94915.axf

JavaScript Object Notation format (JSON) in row-major order
http://www.bom.gov.au/fwo/IDN60801/IDN60801.94915.json

Data quality

Most of these data are generated automatically and are frequently updated. Quality checks on data are not normally performed. It is possible for incorrect values to appear. Refer to information at About Latest Weather Observations and please check the disclaimer before using these data.